createdAt,value
2023-03-11T00:00:26.915Z,95990.88
2023-03-11T00:02:56.055Z,95993.79
2023-03-11T00:05:29.324Z,95990.27
2023-03-11T00:07:57.134Z,95988.18
2023-03-11T00:10:41.318Z,95985.87
2023-03-11T00:13:10.464Z,95988.00
2023-03-11T00:15:38.877Z,95989.04
2023-03-11T00:18:07.003Z,95980.55
2023-03-11T00:20:39.497Z,95983.04
2023-03-11T00:23:08.662Z,95984.20
2023-03-11T00:25:37.621Z,95984.13
2023-03-11T00:28:07.566Z,95985.44
2023-03-11T00:30:34.525Z,95993.63
2023-03-11T00:33:01.527Z,95995.14
2023-03-11T00:35:31.858Z,95996.40
2023-03-11T00:38:01.724Z,95995.41
2023-03-11T00:40:31.351Z,96002.46
2023-03-11T00:42:59.511Z,96000.95
2023-03-11T00:45:28.441Z,96000.30
2023-03-11T00:47:56.153Z,96004.46
2023-03-11T00:50:26.509Z,96004.73
2023-03-11T00:52:53.513Z,96008.04
2023-03-11T00:55:23.838Z,96014.59
2023-03-11T00:58:00.274Z,96016.81
2023-03-11T01:00:28.879Z,96013.04
2023-03-11T01:02:56.680Z,96014.54
2023-03-11T01:05:28.295Z,96017.68
2023-03-11T01:07:55.244Z,96017.06
2023-03-11T01:10:22.177Z,96014.86
2023-03-11T01:12:49.321Z,96015.08
2023-03-11T01:15:30.145Z,96017.89
2023-03-11T01:17:57.155Z,96019.10
2023-03-11T01:20:24.598Z,96018.34
2023-03-11T01:22:51.646Z,96016.03
2023-03-11T01:25:20.329Z,96017.11
2023-03-11T01:27:47.368Z,96018.37
2023-03-11T01:30:17.996Z,96011.35
2023-03-11T01:32:45.281Z,96008.05
2023-03-11T01:35:14.910Z,96001.23
2023-03-11T01:37:41.905Z,96005.27
2023-03-11T01:40:13.353Z,96002.27
2023-03-11T01:42:40.395Z,96004.71
2023-03-11T01:45:43.587Z,96003.21
2023-03-11T01:48:11.890Z,96012.08
2023-03-11T01:50:43.582Z,96011.70
2023-03-11T01:53:13.354Z,96013.31
2023-03-11T01:55:40.368Z,96011.95
2023-03-11T01:58:11.299Z,96010.98
2023-03-11T02:00:39.058Z,96007.73
2023-03-11T02:03:17.732Z,96011.02
2023-03-11T02:05:45.939Z,96012.81
2023-03-11T02:08:12.689Z,96012.06
2023-03-11T02:10:43.021Z,96012.30
2023-03-11T02:13:10.976Z,96009.78
2023-03-11T02:15:39.937Z,96012.30
2023-03-11T02:18:08.477Z,96015.33
2023-03-11T02:20:59.457Z,96013.41
2023-03-11T02:23:37.035Z,96009.20
2023-03-11T02:26:10.439Z,96007.65
2023-03-11T02:28:39.233Z,96012.16
2023-03-11T02:31:06.221Z,96018.20
2023-03-11T02:33:36.841Z,96021.45
2023-03-11T02:36:04.911Z,96022.30
2023-03-11T02:38:31.924Z,96018.80
2023-03-11T02:41:02.967Z,96020.98
2023-03-11T02:43:41.480Z,96018.06
2023-03-11T02:46:11.819Z,96017.60
2023-03-11T02:48:39.457Z,96011.20
2023-03-11T02:51:06.294Z,96008.56
2023-03-11T02:53:38.163Z,96006.55
2023-03-11T02:56:05.290Z,96005.65
2023-03-11T02:58:32.127Z,96004.48
2023-03-11T03:00:58.974Z,96004.39
2023-03-11T03:03:25.806Z,96001.96
2023-03-11T03:05:52.650Z,95998.88
2023-03-11T03:08:19.487Z,95996.76
2023-03-11T03:10:46.640Z,95997.41
2023-03-11T03:13:13.693Z,95996.69
2023-03-11T03:15:40.730Z,95994.84
2023-03-11T03:18:07.665Z,96000.98
2023-03-11T03:20:34.419Z,96005.71
2023-03-11T03:23:01.661Z,96005.87
2023-03-11T03:25:28.715Z,96003.96
2023-03-11T03:27:55.550Z,96005.83
2023-03-11T03:30:22.393Z,95999.00
2023-03-11T03:32:49.302Z,95998.42
2023-03-11T03:35:16.271Z,96006.20
2023-03-11T03:37:43.112Z,96011.72
2023-03-11T03:40:10.773Z,96012.11
2023-03-11T03:42:38.486Z,96015.81
2023-03-11T03:45:08.172Z,96017.91
2023-03-11T03:47:36.012Z,96021.78
2023-03-11T03:50:05.851Z,96024.02
2023-03-11T03:52:32.610Z,96026.29
2023-03-11T03:54:59.350Z,96024.67
2023-03-11T03:57:26.023Z,96019.98
2023-03-11T03:59:52.701Z,96018.67
2023-03-11T04:02:19.547Z,96017.48
2023-03-11T04:04:47.399Z,96012.23
2023-03-11T04:07:14.109Z,96018.16
2023-03-11T04:09:42.754Z,96012.54
2023-03-11T04:12:15.456Z,96012.58
2023-03-11T04:14:42.241Z,96015.36
2023-03-11T04:17:11.841Z,96015.45
2023-03-11T04:19:39.277Z,96013.23
2023-03-11T04:22:06.310Z,96010.52
2023-03-11T04:24:33.036Z,96012.26
2023-03-11T04:27:00.121Z,96022.17
2023-03-11T04:29:26.893Z,96017.80
2023-03-11T04:31:53.706Z,96020.98
2023-03-11T04:34:20.824Z,96021.52
2023-03-11T04:36:47.650Z,96018.81
2023-03-11T04:39:15.600Z,96015.14
2023-03-11T04:41:42.377Z,96026.69
2023-03-11T04:44:09.082Z,96022.87
2023-03-11T04:46:35.958Z,96025.31
2023-03-11T04:49:02.693Z,96023.98
2023-03-11T04:51:29.497Z,96030.84
2023-03-11T04:53:56.225Z,96032.64
2023-03-11T04:56:23.291Z,96035.27
2023-03-11T04:58:49.996Z,96035.94
2023-03-11T05:01:16.740Z,96042.91
2023-03-11T05:03:43.421Z,96054.19
2023-03-11T05:06:10.759Z,96059.95
2023-03-11T05:08:37.638Z,96060.23
2023-03-11T05:11:05.083Z,96064.20
2023-03-11T05:13:32.719Z,96065.63
2023-03-11T05:16:00.149Z,96071.45
2023-03-11T05:18:27.420Z,96074.27
2023-03-11T05:20:54.887Z,96076.75
2023-03-11T05:23:22.442Z,96082.19
2023-03-11T05:25:49.176Z,96085.95
2023-03-11T05:28:16.008Z,96089.30
2023-03-11T05:30:42.646Z,96091.69
2023-03-11T05:33:09.597Z,96097.26
2023-03-11T05:35:36.777Z,96102.10
2023-03-11T05:38:04.880Z,96102.87
2023-03-11T05:40:41.416Z,96103.29
2023-03-11T05:43:08.474Z,96106.08
2023-03-11T05:45:35.467Z,96106.16
2023-03-11T05:48:02.198Z,96109.19
2023-03-11T05:50:29.048Z,96113.11
2023-03-11T05:52:56.561Z,96116.35
2023-03-11T05:55:23.519Z,96125.56
2023-03-11T05:57:52.792Z,96125.59
2023-03-11T06:00:20.726Z,96141.16
2023-03-11T06:02:47.995Z,96144.52
2023-03-11T06:05:15.095Z,96145.66
2023-03-11T06:07:42.253Z,96162.90
2023-03-11T06:10:10.393Z,96170.21
2023-03-11T06:12:38.871Z,96176.97
2023-03-11T06:15:09.358Z,96180.04
2023-03-11T06:17:36.557Z,96193.69
2023-03-11T06:20:05.221Z,96202.31
2023-03-11T06:22:32.470Z,96210.02
2023-03-11T06:24:59.353Z,96216.72
2023-03-11T06:27:26.553Z,96229.95
2023-03-11T06:29:54.966Z,96234.40
2023-03-11T06:32:22.410Z,96233.62
2023-03-11T06:34:53.452Z,96231.99
2023-03-11T06:37:21.597Z,96236.04
2023-03-11T06:39:52.797Z,96237.76
2023-03-11T06:42:20.437Z,96242.77
2023-03-11T06:44:59.202Z,96244.56
2023-03-11T06:47:29.479Z,96248.64
2023-03-11T06:50:01.273Z,96252.96
2023-03-11T06:52:28.245Z,96261.30
2023-03-11T06:54:55.284Z,96258.11
2023-03-11T06:57:22.723Z,96269.13
2023-03-11T06:59:50.082Z,96276.15
2023-03-11T07:02:17.050Z,96278.83
2023-03-11T07:04:44.124Z,96283.56
2023-03-11T07:07:11.207Z,96287.16
2023-03-11T07:09:38.505Z,96286.95
2023-03-11T07:12:06.797Z,96290.30
2023-03-11T07:14:34.453Z,96296.73
2023-03-11T07:17:01.852Z,96295.71
2023-03-11T07:19:28.973Z,96297.30
2023-03-11T07:21:55.907Z,96303.02
2023-03-11T07:24:22.885Z,96300.95
2023-03-11T07:26:49.885Z,96309.40
2023-03-11T07:29:17.170Z,96310.98
2023-03-11T07:31:44.314Z,96311.77
2023-03-11T07:34:14.072Z,96320.23
2023-03-11T07:36:42.507Z,96321.24
2023-03-11T07:39:14.893Z,96323.29
2023-03-11T07:41:42.291Z,96330.18
2023-03-11T07:44:12.908Z,96329.28
2023-03-11T07:46:40.645Z,96332.86
2023-03-11T07:49:08.184Z,96339.84
2023-03-11T07:51:36.970Z,96346.08
2023-03-11T07:54:07.863Z,96349.55
2023-03-11T07:56:35.598Z,96353.30
2023-03-11T07:59:04.497Z,96362.66
2023-03-11T08:01:36.732Z,96367.48
2023-03-11T08:04:06.978Z,96379.15
2023-03-11T08:06:35.756Z,96381.02
2023-03-11T08:09:06.227Z,96384.11
2023-03-11T08:11:33.183Z,96385.17
2023-03-11T08:14:00.474Z,96386.96
2023-03-11T08:16:27.974Z,96388.86
2023-03-11T08:18:55.743Z,96397.04
2023-03-11T08:21:26.073Z,96397.22
2023-03-11T08:23:58.538Z,96403.84
2023-03-11T08:26:26.306Z,96406.25
2023-03-11T08:28:53.340Z,96408.35
2023-03-11T08:31:24.667Z,96411.14
2023-03-11T08:33:54.781Z,96416.81
2023-03-11T08:36:22.138Z,96416.54
2023-03-11T08:38:49.368Z,96420.01
2023-03-11T08:41:16.652Z,96417.90
2023-03-11T08:43:44.773Z,96424.38
2023-03-11T08:46:36.179Z,96426.46
2023-03-11T08:49:03.499Z,96431.83
2023-03-11T08:51:33.029Z,96436.90
2023-03-11T08:54:01.099Z,96435.77
2023-03-11T08:56:28.410Z,96440.39
2023-03-11T08:58:55.816Z,96442.05
2023-03-11T09:01:23.962Z,96446.81
2023-03-11T09:03:51.803Z,96450.84
2023-03-11T09:06:19.444Z,96455.19
2023-03-11T09:08:47.732Z,96462.85
2023-03-11T09:11:16.963Z,96465.30
2023-03-11T09:13:44.567Z,96469.84
2023-03-11T09:16:17.295Z,96473.71
2023-03-11T09:18:45.712Z,96485.73
2023-03-11T09:21:13.280Z,96487.39
2023-03-11T09:23:43.954Z,96493.64
2023-03-11T09:26:12.218Z,96500.23
2023-03-11T09:28:39.917Z,96501.34
2023-03-11T09:31:07.702Z,96504.16
2023-03-11T09:33:40.234Z,96505.34
2023-03-11T09:36:08.304Z,96509.42
2023-03-11T09:38:35.199Z,96511.85
2023-03-11T09:41:36.702Z,96517.20
2023-03-11T09:44:18.384Z,96519.33
2023-03-11T09:47:04.445Z,96527.65
2023-03-11T09:50:16.973Z,96527.77
2023-03-11T09:52:53.299Z,96531.01
2023-03-11T09:55:49.575Z,96534.39
2023-03-11T09:58:29.634Z,96535.19
2023-03-11T10:00:57.142Z,96544.49
2023-03-11T10:03:26.956Z,96547.13
2023-03-11T10:06:01.496Z,96558.08
2023-03-11T10:08:53.911Z,96564.30
2023-03-11T10:11:45.264Z,96575.13
2023-03-11T10:14:27.984Z,96584.08
2023-03-11T10:17:16.937Z,96586.64
2023-03-11T10:20:22.424Z,96596.59
2023-03-11T10:23:08.777Z,96596.33
2023-03-11T10:25:54.376Z,96605.11
2023-03-11T10:28:25.033Z,96614.05
2023-03-11T10:31:01.817Z,96618.92
2023-03-11T10:34:18.872Z,96627.66
2023-03-11T10:36:48.855Z,96627.52
2023-03-11T10:39:16.101Z,96645.73
2023-03-11T10:41:51.415Z,96650.73
2023-03-11T10:44:34.560Z,96660.41
2023-03-11T10:47:02.714Z,96665.58
2023-03-11T10:49:30.616Z,96671.90
2023-03-11T10:51:58.556Z,96677.95
2023-03-11T10:54:35.558Z,96683.27
2023-03-11T10:57:05.427Z,96694.00
2023-03-11T10:59:48.034Z,96697.41
2023-03-11T11:02:38.778Z,96701.16
2023-03-11T11:05:14.924Z,96707.05
2023-03-11T11:07:43.460Z,96716.48
2023-03-11T11:10:14.137Z,96722.80
2023-03-11T11:13:18.317Z,96729.63
2023-03-11T11:15:51.502Z,96737.61
2023-03-11T11:18:42.952Z,96743.50
2023-03-11T11:21:33.601Z,96749.05
2023-03-11T11:24:06.464Z,96755.90
2023-03-11T11:26:33.490Z,96765.49
2023-03-11T11:29:12.831Z,96778.64
2023-03-11T11:31:46.155Z,96781.27
2023-03-11T11:34:32.884Z,96787.33
2023-03-11T11:37:03.746Z,96788.60
2023-03-11T11:39:52.180Z,96789.52
2023-03-11T11:42:20.783Z,96797.79
2023-03-11T11:44:53.420Z,96801.73
2023-03-11T11:47:33.421Z,96808.23
2023-03-11T11:50:16.701Z,96812.96
2023-03-11T11:52:49.211Z,96819.33
2023-03-11T11:55:31.982Z,96826.31
2023-03-11T11:57:59.055Z,96835.39
2023-03-11T12:00:42.281Z,96852.55
2023-03-11T12:03:27.185Z,96860.14
2023-03-11T12:06:07.406Z,96860.06
2023-03-11T12:08:43.415Z,96862.66
2023-03-11T12:11:27.620Z,96867.86
2023-03-11T12:14:04.936Z,96878.18
2023-03-11T12:16:40.057Z,96887.84
2023-03-11T12:19:10.544Z,96890.38
2023-03-11T12:22:17.759Z,96895.05
2023-03-11T12:25:11.985Z,96904.04
2023-03-11T12:27:48.135Z,96900.63
2023-03-11T12:30:20.297Z,96914.55
2023-03-11T12:32:57.027Z,96917.67
2023-03-11T12:35:32.686Z,96919.98
2023-03-11T12:38:21.348Z,96926.70
2023-03-11T12:40:49.507Z,96939.73
2023-03-11T12:43:30.622Z,96944.08
2023-03-11T12:46:01.658Z,96952.73
2023-03-11T12:48:47.900Z,96959.61
2023-03-11T12:51:27.183Z,96965.75
2023-03-11T12:53:57.898Z,96972.50
2023-03-11T12:56:37.077Z,96972.70
2023-03-11T12:59:23.030Z,96982.10
2023-03-11T13:02:12.140Z,96995.46
2023-03-11T13:04:56.806Z,97001.64
2023-03-11T13:07:23.632Z,97008.59
2023-03-11T13:10:29.422Z,97011.33
2023-03-11T13:12:57.876Z,97019.30
2023-03-11T13:15:35.668Z,97025.58
2023-03-11T13:18:07.997Z,97031.50
2023-03-11T13:20:43.840Z,97035.36
2023-03-11T13:23:40.868Z,97042.88
2023-03-11T13:26:35.621Z,97050.02
2023-03-11T13:29:45.367Z,97060.36
2023-03-11T13:32:40.675Z,97074.10
2023-03-11T13:35:48.710Z,97081.20
2023-03-11T13:38:44.603Z,97087.79
2023-03-11T13:41:20.641Z,97088.88
2023-03-11T13:43:50.885Z,97098.23
2023-03-11T13:46:31.271Z,97104.89
2023-03-11T13:49:26.146Z,97108.47
2023-03-11T13:51:57.278Z,97114.30
2023-03-11T13:54:31.828Z,97119.82
2023-03-11T13:57:01.689Z,97125.01
2023-03-11T13:59:35.132Z,97124.46
2023-03-11T14:02:17.327Z,97122.40
2023-03-11T14:04:59.236Z,97128.48
2023-03-11T14:07:34.404Z,97136.95
2023-03-11T14:10:22.065Z,97143.95
2023-03-11T14:12:49.591Z,97146.00
2023-03-11T14:15:24.327Z,97153.52
2023-03-11T14:17:52.955Z,97158.07
2023-03-11T14:20:25.447Z,97162.35
2023-03-11T14:22:55.271Z,97165.78
2023-03-11T14:25:28.566Z,97171.17
2023-03-11T14:28:02.239Z,97173.80
2023-03-11T14:30:32.557Z,97176.41
2023-03-11T14:33:06.020Z,97185.33
2023-03-11T14:35:34.553Z,97182.02
2023-03-11T14:38:01.849Z,97191.73
2023-03-11T14:40:32.396Z,97193.00
2023-03-11T14:43:06.582Z,97204.13
2023-03-11T14:45:37.631Z,97211.30
2023-03-11T14:48:04.763Z,97222.35
2023-03-11T14:50:35.427Z,97220.33
2023-03-11T14:53:09.349Z,97221.06
2023-03-11T14:55:44.417Z,97230.98
2023-03-11T14:58:24.173Z,97234.33
2023-03-11T15:00:58.268Z,97234.50
2023-03-11T15:03:31.958Z,97238.29
2023-03-11T15:06:04.405Z,97240.98
2023-03-11T15:08:45.115Z,97237.76
2023-03-11T15:11:15.431Z,97244.42
2023-03-11T15:13:44.783Z,97253.79
2023-03-11T15:16:30.217Z,97258.61
2023-03-11T15:19:00.779Z,97258.88
2023-03-11T15:21:28.382Z,97262.81
2023-03-11T15:24:07.337Z,97268.19
2023-03-11T15:26:36.073Z,97272.59
2023-03-11T15:29:13.438Z,97281.20
2023-03-11T15:31:41.277Z,97283.65
2023-03-11T15:34:17.214Z,97286.05
2023-03-11T15:37:20.638Z,97288.70
2023-03-11T15:39:51.444Z,97290.79
2023-03-11T15:42:21.654Z,97299.10
2023-03-11T15:45:16.008Z,97298.15
2023-03-11T15:47:44.149Z,97310.21
2023-03-11T15:50:40.088Z,97316.65
2023-03-11T15:53:13.768Z,97330.08
2023-03-11T15:55:40.630Z,97333.20
2023-03-11T15:58:09.577Z,97337.70
2023-03-11T16:00:37.602Z,97337.45
2023-03-11T16:03:05.429Z,97344.84
2023-03-11T16:05:32.306Z,97354.44
2023-03-11T16:07:59.193Z,97358.68
2023-03-11T16:10:28.998Z,97364.02
2023-03-11T16:12:56.401Z,97370.66
2023-03-11T16:15:29.658Z,97370.17
2023-03-11T16:17:59.593Z,97375.20
2023-03-11T16:20:29.738Z,97380.33
2023-03-11T16:22:58.937Z,97383.60
2023-03-11T16:25:46.864Z,97390.39
2023-03-11T16:28:16.065Z,97397.55
2023-03-11T16:30:43.994Z,97412.04
2023-03-11T16:33:11.178Z,97413.50
2023-03-11T16:35:38.401Z,97418.78
2023-03-11T16:38:07.449Z,97423.02
2023-03-11T16:40:35.189Z,97428.95
2023-03-11T16:43:08.238Z,97436.21
2023-03-11T16:45:35.676Z,97435.67
2023-03-11T16:48:03.755Z,97447.04
2023-03-11T16:50:30.788Z,97451.95
2023-03-11T16:52:57.988Z,97456.30
2023-03-11T16:55:27.423Z,97463.36
2023-03-11T16:57:56.625Z,97474.31
2023-03-11T17:00:27.283Z,97479.11
2023-03-11T17:02:54.580Z,97489.51
2023-03-11T17:05:22.278Z,97498.94
2023-03-11T17:07:52.682Z,97504.11
2023-03-11T17:10:19.527Z,97515.90
2023-03-11T17:12:46.363Z,97519.34
2023-03-11T17:15:13.426Z,97527.09
2023-03-11T17:17:40.638Z,97532.90
2023-03-11T17:20:09.252Z,97538.94
2023-03-11T17:22:36.600Z,97537.87
2023-03-11T17:25:04.470Z,97544.64
2023-03-11T17:27:32.934Z,97546.15
2023-03-11T17:30:04.866Z,97552.98
2023-03-11T17:32:33.098Z,97559.55
2023-03-11T17:35:00.463Z,97564.12
2023-03-11T17:37:27.824Z,97566.97
2023-03-11T17:39:55.137Z,97572.58
2023-03-11T17:42:22.705Z,97579.95
2023-03-11T17:44:55.109Z,97579.89
2023-03-11T17:47:26.406Z,97583.82
2023-03-11T17:49:54.161Z,97590.21
2023-03-11T17:52:21.189Z,97601.67
2023-03-11T17:54:48.056Z,97607.05
2023-03-11T17:57:15.267Z,97611.84
2023-03-11T17:59:42.222Z,97616.20
2023-03-11T18:02:14.476Z,97622.13
2023-03-11T18:04:43.698Z,97626.11
2023-03-11T18:07:10.856Z,97630.75
2023-03-11T18:09:38.565Z,97632.79
2023-03-11T18:12:07.270Z,97640.66
2023-03-11T18:14:34.238Z,97641.41
2023-03-11T18:17:01.340Z,97642.71
2023-03-11T18:19:28.375Z,97647.38
2023-03-11T18:21:55.418Z,97647.97
2023-03-11T18:24:22.542Z,97652.65
2023-03-11T18:26:49.458Z,97655.50
2023-03-11T18:29:16.777Z,97661.98
2023-03-11T18:31:43.852Z,97665.59
2023-03-11T18:34:14.089Z,97665.60
2023-03-11T18:36:42.462Z,97673.39
2023-03-11T18:39:14.125Z,97675.21
2023-03-11T18:41:42.468Z,97678.65
2023-03-11T18:44:09.935Z,97683.45
2023-03-11T18:46:37.257Z,97684.41
2023-03-11T18:49:04.852Z,97683.60
2023-03-11T18:51:33.204Z,97691.47
2023-03-11T18:54:01.113Z,97692.39
2023-03-11T18:56:31.335Z,97692.83
2023-03-11T18:58:59.694Z,97696.60
2023-03-11T19:01:27.882Z,97699.63
2023-03-11T19:03:57.448Z,97702.58
2023-03-11T19:06:26.869Z,97707.95
2023-03-11T19:08:54.469Z,97708.05
2023-03-11T19:11:23.458Z,97705.52
2023-03-11T19:13:51.272Z,97710.14
2023-03-11T19:16:21.907Z,97717.12
2023-03-11T19:18:48.954Z,97722.81
2023-03-11T19:21:17.688Z,97726.35
2023-03-11T19:23:45.683Z,97729.50
2023-03-11T19:26:13.580Z,97731.33
2023-03-11T19:28:40.514Z,97739.44
2023-03-11T19:31:07.538Z,97745.52
2023-03-11T19:33:34.911Z,97743.91
2023-03-11T19:36:04.497Z,97750.86
2023-03-11T19:38:32.147Z,97753.79
2023-03-11T19:41:08.872Z,97754.14
2023-03-11T19:43:36.577Z,97754.80
2023-03-11T19:46:05.619Z,97755.04
2023-03-11T19:48:32.792Z,97754.53
2023-03-11T19:51:00.806Z,97758.54
2023-03-11T19:53:28.684Z,97762.25
2023-03-11T19:55:57.113Z,97756.33
2023-03-11T19:58:29.929Z,97763.27
2023-03-11T20:00:58.950Z,97765.46
2023-03-11T20:03:27.343Z,97769.61
2023-03-11T20:05:58.134Z,97766.63
2023-03-11T20:08:26.153Z,97766.92
2023-03-11T20:10:53.803Z,97774.08
2023-03-11T20:13:22.479Z,97780.26
2023-03-11T20:15:50.196Z,97782.59
2023-03-11T20:18:18.410Z,97783.28
2023-03-11T20:20:45.980Z,97787.08
2023-03-11T20:23:24.962Z,97791.27
2023-03-11T20:25:52.113Z,97795.70
2023-03-11T20:28:19.495Z,97797.15
2023-03-11T20:30:46.405Z,97799.73
2023-03-11T20:33:13.588Z,97795.73
2023-03-11T20:35:41.913Z,97797.40
2023-03-11T20:38:10.542Z,97801.19
2023-03-11T20:40:37.818Z,97804.25
2023-03-11T20:43:04.948Z,97802.80
2023-03-11T20:45:32.370Z,97810.50
2023-03-11T20:47:59.701Z,97812.48
2023-03-11T20:50:26.600Z,97815.54
2023-03-11T20:52:53.502Z,97815.95
2023-03-11T20:55:22.068Z,97815.33
2023-03-11T20:57:48.946Z,97818.77
2023-03-11T21:00:16.516Z,97819.56
2023-03-11T21:02:43.928Z,97820.95
2023-03-11T21:05:12.128Z,97820.83
2023-03-11T21:07:40.782Z,97822.52
2023-03-11T21:10:12.015Z,97823.60
2023-03-11T21:12:38.889Z,97825.91
2023-03-11T21:15:07.569Z,97827.54
2023-03-11T21:17:35.687Z,97822.45
2023-03-11T21:20:05.189Z,97822.81
2023-03-11T21:22:33.125Z,97822.58
2023-03-11T21:25:00.113Z,97819.73
2023-03-11T21:27:27.255Z,97827.52
2023-03-11T21:29:55.782Z,97828.88
2023-03-11T21:32:24.176Z,97828.14
2023-03-11T21:34:51.553Z,97830.94
2023-03-11T21:37:18.751Z,97829.00
2023-03-11T21:39:45.863Z,97840.11
2023-03-11T21:42:13.575Z,97847.02
2023-03-11T21:44:41.998Z,97851.30
2023-03-11T21:47:10.098Z,97851.34
2023-03-11T21:49:37.156Z,97862.38
2023-03-11T21:52:04.715Z,97865.98
2023-03-11T21:54:31.937Z,97868.59
2023-03-11T21:56:58.880Z,97871.77
2023-03-11T21:59:25.919Z,97872.61
2023-03-11T22:01:53.449Z,97877.56
2023-03-11T22:04:20.823Z,97879.45
2023-03-11T22:06:48.200Z,97882.30
2023-03-11T22:09:15.297Z,97886.81
2023-03-11T22:11:42.558Z,97891.04
2023-03-11T22:14:10.575Z,97891.08
2023-03-11T22:16:38.081Z,97890.37
2023-03-11T22:19:06.451Z,97887.14
2023-03-11T22:21:33.587Z,97891.61
2023-03-11T22:24:00.612Z,97891.28
2023-03-11T22:26:27.734Z,97890.98
2023-03-11T22:28:55.103Z,97893.41
2023-03-11T22:31:22.160Z,97892.80
2023-03-11T22:33:49.035Z,97894.15
2023-03-11T22:36:15.986Z,97896.47
2023-03-11T22:38:45.544Z,97896.42
2023-03-11T22:41:14.502Z,97897.25
2023-03-11T22:43:41.281Z,97899.46
2023-03-11T22:46:08.275Z,97901.87
2023-03-11T22:48:35.336Z,97898.71
2023-03-11T22:51:02.481Z,97898.39
2023-03-11T22:53:29.756Z,97894.40
2023-03-11T22:55:56.626Z,97895.36
2023-03-11T22:58:23.754Z,97895.33
2023-03-11T23:00:51.262Z,97895.96
2023-03-11T23:03:18.181Z,97895.86
2023-03-11T23:05:46.842Z,97895.04
2023-03-11T23:08:16.555Z,97896.52
2023-03-11T23:10:45.993Z,97899.07
2023-03-11T23:13:13.758Z,97896.34
2023-03-11T23:15:43.189Z,97901.86
2023-03-11T23:18:10.869Z,97899.54
2023-03-11T23:20:40.231Z,97900.80
2023-03-11T23:23:07.790Z,97905.23
2023-03-11T23:25:35.857Z,97902.61
2023-03-11T23:28:05.905Z,97902.08
2023-03-11T23:30:33.310Z,97904.77
2023-03-11T23:33:03.191Z,97903.27
2023-03-11T23:35:31.676Z,97908.26
2023-03-11T23:37:59.824Z,97915.40
2023-03-11T23:40:27.873Z,97914.89
2023-03-11T23:42:54.834Z,97915.55
2023-03-11T23:45:21.855Z,97923.73
2023-03-11T23:47:48.906Z,97928.81
2023-03-11T23:50:16.313Z,97934.59
2023-03-11T23:52:43.987Z,97936.66
2023-03-11T23:55:11.585Z,97938.90
2023-03-11T23:57:38.721Z,97938.55
